sensor_id;sensor_type;location;lat;lon;timestamp;temperature;humidity
12315;DHT22;23886;46.614;14.276;2022-09-06T00:02:18;17.70;99.90
12315;DHT22;23886;46.614;14.276;2022-09-06T00:04:45;17.60;99.90
12315;DHT22;23886;46.614;14.276;2022-09-06T00:07:12;17.50;99.90
12315;DHT22;23886;46.614;14.276;2022-09-06T00:09:40;17.50;99.90
12315;DHT22;23886;46.614;14.276;2022-09-06T00:12:07;17.40;99.90
12315;DHT22;23886;46.614;14.276;2022-09-06T00:14:35;17.40;99.90
12315;DHT22;23886;46.614;14.276;2022-09-06T00:17:03;17.30;99.90
12315;DHT22;23886;46.614;14.276;2022-09-06T00:19:30;17.30;99.90
12315;DHT22;23886;46.614;14.276;2022-09-06T00:21:57;17.40;99.90
12315;DHT22;23886;46.614;14.276;2022-09-06T00:24:24;17.40;99.90
12315;DHT22;23886;46.614;14.276;2022-09-06T00:26:51;17.60;99.90
12315;DHT22;23886;46.614;14.276;2022-09-06T00:29:18;17.50;99.90
12315;DHT22;23886;46.614;14.276;2022-09-06T00:31:47;17.50;99.90
12315;DHT22;23886;46.614;14.276;2022-09-06T00:34:14;17.50;99.90
12315;DHT22;23886;46.614;14.276;2022-09-06T00:36:41;17.40;99.90
12315;DHT22;23886;46.614;14.276;2022-09-06T00:39:08;17.30;99.90
12315;DHT22;23886;46.614;14.276;2022-09-06T00:41:35;17.40;99.90
12315;DHT22;23886;46.614;14.276;2022-09-06T00:44:03;17.50;99.90
12315;DHT22;23886;46.614;14.276;2022-09-06T00:46:31;17.40;99.90
12315;DHT22;23886;46.614;14.276;2022-09-06T00:49:04;17.30;99.90
12315;DHT22;23886;46.614;14.276;2022-09-06T00:51:33;17.40;99.90
12315;DHT22;23886;46.614;14.276;2022-09-06T00:54:02;17.40;99.90
12315;DHT22;23886;46.614;14.276;2022-09-06T00:56:30;17.30;99.90
12315;DHT22;23886;46.614;14.276;2022-09-06T00:58:59;17.30;99.90
12315;DHT22;23886;46.614;14.276;2022-09-06T01:01:26;17.20;99.90
12315;DHT22;23886;46.614;14.276;2022-09-06T01:03:54;17.20;99.90
12315;DHT22;23886;46.614;14.276;2022-09-06T01:06:25;17.10;99.90
12315;DHT22;23886;46.614;14.276;2022-09-06T01:09:04;17.20;99.90
12315;DHT22;23886;46.614;14.276;2022-09-06T01:11:51;17.20;99.90
12315;DHT22;23886;46.614;14.276;2022-09-06T01:14:30;17.10;99.90
12315;DHT22;23886;46.614;14.276;2022-09-06T01:17:09;17.20;99.90
12315;DHT22;23886;46.614;14.276;2022-09-06T01:23:04;17.10;99.90
12315;DHT22;23886;46.614;14.276;2022-09-06T01:25:43;17.00;99.90
12315;DHT22;23886;46.614;14.276;2022-09-06T01:28:29;17.00;99.90
12315;DHT22;23886;46.614;14.276;2022-09-06T01:31:05;16.90;99.90
12315;DHT22;23886;46.614;14.276;2022-09-06T01:33:40;17.00;99.90
12315;DHT22;23886;46.614;14.276;2022-09-06T01:36:12;17.00;99.90
12315;DHT22;23886;46.614;14.276;2022-09-06T01:38:40;17.00;99.90
12315;DHT22;23886;46.614;14.276;2022-09-06T01:41:08;16.90;99.90
12315;DHT22;23886;46.614;14.276;2022-09-06T01:43:39;17.00;99.90
12315;DHT22;23886;46.614;14.276;2022-09-06T01:46:14;16.90;99.90
12315;DHT22;23886;46.614;14.276;2022-09-06T01:49:05;17.00;99.90
12315;DHT22;23886;46.614;14.276;2022-09-06T01:51:44;17.00;99.90
12315;DHT22;23886;46.614;14.276;2022-09-06T01:54:45;17.00;99.90
12315;DHT22;23886;46.614;14.276;2022-09-06T01:57:26;17.10;99.90
12315;DHT22;23886;46.614;14.276;2022-09-06T02:00:05;17.10;99.90
12315;DHT22;23886;46.614;14.276;2022-09-06T02:02:47;17.00;99.90
12315;DHT22;23886;46.614;14.276;2022-09-06T02:05:21;17.00;99.90
12315;DHT22;23886;46.614;14.276;2022-09-06T02:07:53;17.00;99.90
12315;DHT22;23886;46.614;14.276;2022-09-06T02:10:24;17.10;99.90
12315;DHT22;23886;46.614;14.276;2022-09-06T02:12:55;17.10;99.90
12315;DHT22;23886;46.614;14.276;2022-09-06T02:15:27;16.90;99.90
12315;DHT22;23886;46.614;14.276;2022-09-06T02:17:58;16.90;99.90
12315;DHT22;23886;46.614;14.276;2022-09-06T02:20:29;16.80;99.90
12315;DHT22;23886;46.614;14.276;2022-09-06T02:23:00;16.90;99.90
12315;DHT22;23886;46.614;14.276;2022-09-06T02:25:32;16.90;99.90
12315;DHT22;23886;46.614;14.276;2022-09-06T02:28:01;16.80;99.90
12315;DHT22;23886;46.614;14.276;2022-09-06T02:30:30;16.70;99.90
12315;DHT22;23886;46.614;14.276;2022-09-06T02:33:03;16.60;99.90
12315;DHT22;23886;46.614;14.276;2022-09-06T02:35:42;16.40;99.90
12315;DHT22;23886;46.614;14.276;2022-09-06T02:38:09;16.30;99.90
12315;DHT22;23886;46.614;14.276;2022-09-06T02:40:37;16.20;99.90
12315;DHT22;23886;46.614;14.276;2022-09-06T02:43:04;16.20;99.90
12315;DHT22;23886;46.614;14.276;2022-09-06T02:45:33;16.30;99.90
12315;DHT22;23886;46.614;14.276;2022-09-06T02:48:00;16.40;99.90
12315;DHT22;23886;46.614;14.276;2022-09-06T02:50:27;16.30;99.90
12315;DHT22;23886;46.614;14.276;2022-09-06T02:53:03;16.20;99.90
12315;DHT22;23886;46.614;14.276;2022-09-06T02:55:31;16.40;99.90
12315;DHT22;23886;46.614;14.276;2022-09-06T02:57:58;16.20;99.90
12315;DHT22;23886;46.614;14.276;2022-09-06T03:00:25;16.10;99.90
12315;DHT22;23886;46.614;14.276;2022-09-06T03:02:55;16.10;99.90
12315;DHT22;23886;46.614;14.276;2022-09-06T03:05:22;16.20;99.90
12315;DHT22;23886;46.614;14.276;2022-09-06T03:07:50;16.30;99.90
12315;DHT22;23886;46.614;14.276;2022-09-06T03:10:17;16.30;99.90
12315;DHT22;23886;46.614;14.276;2022-09-06T03:12:45;16.30;99.90
12315;DHT22;23886;46.614;14.276;2022-09-06T03:15:14;16.40;99.90
12315;DHT22;23886;46.614;14.276;2022-09-06T03:17:42;16.20;99.90
12315;DHT22;23886;46.614;14.276;2022-09-06T03:20:11;16.00;99.90
12315;DHT22;23886;46.614;14.276;2022-09-06T03:22:39;16.00;99.90
12315;DHT22;23886;46.614;14.276;2022-09-06T03:25:07;16.10;99.90
12315;DHT22;23886;46.614;14.276;2022-09-06T03:27:35;16.20;99.90
12315;DHT22;23886;46.614;14.276;2022-09-06T03:30:03;16.20;99.90
12315;DHT22;23886;46.614;14.276;2022-09-06T03:32:30;16.10;99.90
12315;DHT22;23886;46.614;14.276;2022-09-06T03:34:57;16.10;99.90
12315;DHT22;23886;46.614;14.276;2022-09-06T03:37:26;16.20;99.90
12315;DHT22;23886;46.614;14.276;2022-09-06T03:39:54;16.40;99.90
12315;DHT22;23886;46.614;14.276;2022-09-06T03:42:21;16.20;99.90
12315;DHT22;23886;46.614;14.276;2022-09-06T03:44:51;16.10;99.90
12315;DHT22;23886;46.614;14.276;2022-09-06T03:47:18;15.90;99.90
12315;DHT22;23886;46.614;14.276;2022-09-06T03:49:46;15.90;99.90
12315;DHT22;23886;46.614;14.276;2022-09-06T03:52:13;15.90;99.90
12315;DHT22;23886;46.614;14.276;2022-09-06T03:54:41;15.90;99.90
12315;DHT22;23886;46.614;14.276;2022-09-06T03:57:09;15.90;99.90
12315;DHT22;23886;46.614;14.276;2022-09-06T03:59:36;15.80;99.90
12315;DHT22;23886;46.614;14.276;2022-09-06T04:02:03;15.80;99.90
12315;DHT22;23886;46.614;14.276;2022-09-06T04:04:31;15.80;99.90
12315;DHT22;23886;46.614;14.276;2022-09-06T04:06:58;15.70;99.90
12315;DHT22;23886;46.614;14.276;2022-09-06T04:09:25;15.80;99.90
12315;DHT22;23886;46.614;14.276;2022-09-06T04:11:54;15.80;99.90
12315;DHT22;23886;46.614;14.276;2022-09-06T04:14:21;15.90;99.90
12315;DHT22;23886;46.614;14.276;2022-09-06T04:16:49;15.80;99.90
12315;DHT22;23886;46.614;14.276;2022-09-06T04:19:17;15.70;99.90
12315;DHT22;23886;46.614;14.276;2022-09-06T04:21:44;15.70;99.90
12315;DHT22;23886;46.614;14.276;2022-09-06T04:24:11;15.60;99.90
12315;DHT22;23886;46.614;14.276;2022-09-06T04:26:38;15.60;99.90
12315;DHT22;23886;46.614;14.276;2022-09-06T04:29:07;15.70;99.90
12315;DHT22;23886;46.614;14.276;2022-09-06T04:31:34;15.80;99.90
12315;DHT22;23886;46.614;14.276;2022-09-06T04:34:01;15.80;99.90
12315;DHT22;23886;46.614;14.276;2022-09-06T04:36:28;15.70;99.90
12315;DHT22;23886;46.614;14.276;2022-09-06T04:38:55;15.50;99.90
12315;DHT22;23886;46.614;14.276;2022-09-06T04:41:22;15.50;99.90
12315;DHT22;23886;46.614;14.276;2022-09-06T04:43:49;15.30;99.90
12315;DHT22;23886;46.614;14.276;2022-09-06T04:46:21;15.40;99.90
12315;DHT22;23886;46.614;14.276;2022-09-06T04:48:50;15.30;99.90
12315;DHT22;23886;46.614;14.276;2022-09-06T04:51:18;15.40;99.90
12315;DHT22;23886;46.614;14.276;2022-09-06T04:53:46;15.40;99.90
12315;DHT22;23886;46.614;14.276;2022-09-06T04:56:14;15.50;99.90
12315;DHT22;23886;46.614;14.276;2022-09-06T04:58:43;15.50;99.90
12315;DHT22;23886;46.614;14.276;2022-09-06T05:01:10;15.60;99.90
12315;DHT22;23886;46.614;14.276;2022-09-06T05:03:39;15.60;99.90
12315;DHT22;23886;46.614;14.276;2022-09-06T05:06:08;15.50;99.90
12315;DHT22;23886;46.614;14.276;2022-09-06T05:08:36;15.50;99.90
12315;DHT22;23886;46.614;14.276;2022-09-06T05:11:04;15.50;99.90
12315;DHT22;23886;46.614;14.276;2022-09-06T05:13:32;15.60;99.90
12315;DHT22;23886;46.614;14.276;2022-09-06T05:16:00;15.60;99.90
12315;DHT22;23886;46.614;14.276;2022-09-06T05:18:27;15.50;99.90
12315;DHT22;23886;46.614;14.276;2022-09-06T05:20:56;15.70;99.90
12315;DHT22;23886;46.614;14.276;2022-09-06T05:23:24;15.70;99.90
12315;DHT22;23886;46.614;14.276;2022-09-06T05:25:52;15.80;99.90
12315;DHT22;23886;46.614;14.276;2022-09-06T05:28:19;15.80;99.90
12315;DHT22;23886;46.614;14.276;2022-09-06T05:30:46;15.90;99.90
12315;DHT22;23886;46.614;14.276;2022-09-06T05:33:18;16.00;99.90
12315;DHT22;23886;46.614;14.276;2022-09-06T05:35:46;16.00;99.90
12315;DHT22;23886;46.614;14.276;2022-09-06T05:38:15;16.00;99.90
12315;DHT22;23886;46.614;14.276;2022-09-06T05:40:42;16.10;99.90
12315;DHT22;23886;46.614;14.276;2022-09-06T05:43:09;16.10;99.90
12315;DHT22;23886;46.614;14.276;2022-09-06T05:45:36;16.20;99.90
12315;DHT22;23886;46.614;14.276;2022-09-06T05:48:04;16.30;99.90
12315;DHT22;23886;46.614;14.276;2022-09-06T05:50:31;16.40;99.90
12315;DHT22;23886;46.614;14.276;2022-09-06T05:52:58;16.40;99.90
12315;DHT22;23886;46.614;14.276;2022-09-06T05:55:26;16.50;99.90
12315;DHT22;23886;46.614;14.276;2022-09-06T05:57:53;16.50;99.90
12315;DHT22;23886;46.614;14.276;2022-09-06T06:00:20;16.50;99.90
12315;DHT22;23886;46.614;14.276;2022-09-06T06:02:48;16.50;99.90
12315;DHT22;23886;46.614;14.276;2022-09-06T06:05:15;16.60;99.90
12315;DHT22;23886;46.614;14.276;2022-09-06T06:07:43;16.60;99.90
12315;DHT22;23886;46.614;14.276;2022-09-06T06:10:10;16.70;99.90
12315;DHT22;23886;46.614;14.276;2022-09-06T06:12:39;16.90;99.90
12315;DHT22;23886;46.614;14.276;2022-09-06T06:15:07;16.90;99.90
12315;DHT22;23886;46.614;14.276;2022-09-06T06:17:34;17.00;99.90
12315;DHT22;23886;46.614;14.276;2022-09-06T06:20:01;17.10;99.90
12315;DHT22;23886;46.614;14.276;2022-09-06T06:22:28;17.10;99.90
12315;DHT22;23886;46.614;14.276;2022-09-06T06:24:56;17.20;99.90
12315;DHT22;23886;46.614;14.276;2022-09-06T06:27:23;17.30;99.90
12315;DHT22;23886;46.614;14.276;2022-09-06T06:29:51;17.50;99.90
12315;DHT22;23886;46.614;14.276;2022-09-06T06:32:18;17.60;99.90
12315;DHT22;23886;46.614;14.276;2022-09-06T06:34:45;17.70;99.90
12315;DHT22;23886;46.614;14.276;2022-09-06T06:37:12;17.80;99.90
12315;DHT22;23886;46.614;14.276;2022-09-06T06:39:39;17.90;99.90
12315;DHT22;23886;46.614;14.276;2022-09-06T06:42:07;17.90;99.90
12315;DHT22;23886;46.614;14.276;2022-09-06T06:44:34;18.10;99.90
12315;DHT22;23886;46.614;14.276;2022-09-06T06:47:02;18.20;99.90
12315;DHT22;23886;46.614;14.276;2022-09-06T06:49:29;18.40;99.90
12315;DHT22;23886;46.614;14.276;2022-09-06T06:51:57;18.30;99.90
12315;DHT22;23886;46.614;14.276;2022-09-06T06:54:24;18.40;99.90
12315;DHT22;23886;46.614;14.276;2022-09-06T06:56:51;18.30;99.90
12315;DHT22;23886;46.614;14.276;2022-09-06T06:59:18;18.20;99.90
12315;DHT22;23886;46.614;14.276;2022-09-06T07:01:46;18.20;99.90
12315;DHT22;23886;46.614;14.276;2022-09-06T07:04:16;18.30;99.90
12315;DHT22;23886;46.614;14.276;2022-09-06T07:06:48;18.30;99.90
12315;DHT22;23886;46.614;14.276;2022-09-06T07:09:16;18.40;99.90
12315;DHT22;23886;46.614;14.276;2022-09-06T07:11:44;18.30;99.90
12315;DHT22;23886;46.614;14.276;2022-09-06T07:14:12;18.30;99.90
12315;DHT22;23886;46.614;14.276;2022-09-06T07:16:39;18.30;99.90
12315;DHT22;23886;46.614;14.276;2022-09-06T07:19:06;18.30;99.90
12315;DHT22;23886;46.614;14.276;2022-09-06T07:21:34;18.50;99.90
12315;DHT22;23886;46.614;14.276;2022-09-06T07:24:03;18.60;99.90
12315;DHT22;23886;46.614;14.276;2022-09-06T07:26:32;18.70;99.90
12315;DHT22;23886;46.614;14.276;2022-09-06T07:29:01;18.70;99.90
12315;DHT22;23886;46.614;14.276;2022-09-06T07:31:29;18.80;99.90
12315;DHT22;23886;46.614;14.276;2022-09-06T07:33:57;18.80;99.90
12315;DHT22;23886;46.614;14.276;2022-09-06T07:36:24;18.80;99.90
12315;DHT22;23886;46.614;14.276;2022-09-06T07:38:53;18.90;99.90
12315;DHT22;23886;46.614;14.276;2022-09-06T07:41:20;19.00;99.90
12315;DHT22;23886;46.614;14.276;2022-09-06T07:43:50;19.00;99.90
12315;DHT22;23886;46.614;14.276;2022-09-06T07:46:19;19.00;99.90
12315;DHT22;23886;46.614;14.276;2022-09-06T07:48:47;19.10;99.90
12315;DHT22;23886;46.614;14.276;2022-09-06T07:51:16;19.20;99.90
12315;DHT22;23886;46.614;14.276;2022-09-06T07:53:47;19.30;99.90
12315;DHT22;23886;46.614;14.276;2022-09-06T07:56:18;19.30;99.90
12315;DHT22;23886;46.614;14.276;2022-09-06T07:58:46;19.40;99.90
12315;DHT22;23886;46.614;14.276;2022-09-06T08:01:18;19.50;99.90
12315;DHT22;23886;46.614;14.276;2022-09-06T08:03:46;19.60;99.90
12315;DHT22;23886;46.614;14.276;2022-09-06T08:06:13;19.80;99.90
12315;DHT22;23886;46.614;14.276;2022-09-06T08:08:40;19.90;99.90
12315;DHT22;23886;46.614;14.276;2022-09-06T08:11:07;19.90;99.90
12315;DHT22;23886;46.614;14.276;2022-09-06T08:13:36;20.10;99.90
12315;DHT22;23886;46.614;14.276;2022-09-06T08:16:05;20.10;99.90
12315;DHT22;23886;46.614;14.276;2022-09-06T08:18:33;20.20;99.90
12315;DHT22;23886;46.614;14.276;2022-09-06T08:21:08;20.20;99.90
12315;DHT22;23886;46.614;14.276;2022-09-06T08:23:36;20.30;99.90
12315;DHT22;23886;46.614;14.276;2022-09-06T08:26:03;20.40;99.90
12315;DHT22;23886;46.614;14.276;2022-09-06T08:28:30;20.60;99.90
12315;DHT22;23886;46.614;14.276;2022-09-06T08:31:06;20.70;99.90
12315;DHT22;23886;46.614;14.276;2022-09-06T08:33:33;20.80;99.90
12315;DHT22;23886;46.614;14.276;2022-09-06T08:36:00;20.90;99.90
12315;DHT22;23886;46.614;14.276;2022-09-06T08:38:28;20.70;99.90
12315;DHT22;23886;46.614;14.276;2022-09-06T08:41:07;20.80;99.90
12315;DHT22;23886;46.614;14.276;2022-09-06T08:43:34;21.00;99.90
12315;DHT22;23886;46.614;14.276;2022-09-06T08:46:02;21.10;99.90
12315;DHT22;23886;46.614;14.276;2022-09-06T08:48:32;21.20;99.90
12315;DHT22;23886;46.614;14.276;2022-09-06T08:51:22;21.30;99.90
12315;DHT22;23886;46.614;14.276;2022-09-06T08:53:53;21.50;99.90
12315;DHT22;23886;46.614;14.276;2022-09-06T08:56:23;21.60;99.90
12315;DHT22;23886;46.614;14.276;2022-09-06T08:59:02;21.80;99.90
12315;DHT22;23886;46.614;14.276;2022-09-06T09:01:36;21.90;99.90
12315;DHT22;23886;46.614;14.276;2022-09-06T09:04:12;21.90;99.90
12315;DHT22;23886;46.614;14.276;2022-09-06T09:06:40;21.80;99.90
12315;DHT22;23886;46.614;14.276;2022-09-06T09:09:13;21.90;99.90
12315;DHT22;23886;46.614;14.276;2022-09-06T09:11:42;22.00;99.90
12315;DHT22;23886;46.614;14.276;2022-09-06T09:14:14;22.00;99.90
12315;DHT22;23886;46.614;14.276;2022-09-06T09:16:42;22.10;99.90
12315;DHT22;23886;46.614;14.276;2022-09-06T09:19:12;22.10;99.90
12315;DHT22;23886;46.614;14.276;2022-09-06T09:21:39;22.30;99.90
12315;DHT22;23886;46.614;14.276;2022-09-06T09:24:08;22.40;99.90
12315;DHT22;23886;46.614;14.276;2022-09-06T09:26:43;22.50;99.90
12315;DHT22;23886;46.614;14.276;2022-09-06T09:29:14;22.70;99.90
12315;DHT22;23886;46.614;14.276;2022-09-06T09:31:45;22.70;99.90
12315;DHT22;23886;46.614;14.276;2022-09-06T09:34:29;22.80;99.90
12315;DHT22;23886;46.614;14.276;2022-09-06T09:37:11;23.00;99.90
12315;DHT22;23886;46.614;14.276;2022-09-06T09:39:38;23.20;99.90
12315;DHT22;23886;46.614;14.276;2022-09-06T09:42:06;23.40;99.90
12315;DHT22;23886;46.614;14.276;2022-09-06T09:44:35;23.60;99.90
12315;DHT22;23886;46.614;14.276;2022-09-06T09:47:21;23.70;99.90
12315;DHT22;23886;46.614;14.276;2022-09-06T09:49:50;23.50;99.90
12315;DHT22;23886;46.614;14.276;2022-09-06T09:52:23;23.50;99.90
12315;DHT22;23886;46.614;14.276;2022-09-06T09:54:51;23.70;99.90
12315;DHT22;23886;46.614;14.276;2022-09-06T09:57:21;24.00;99.90
12315;DHT22;23886;46.614;14.276;2022-09-06T09:59:51;24.40;99.90
12315;DHT22;23886;46.614;14.276;2022-09-06T10:02:23;24.80;99.90
12315;DHT22;23886;46.614;14.276;2022-09-06T10:04:58;24.80;99.90
12315;DHT22;23886;46.614;14.276;2022-09-06T10:07:26;24.50;99.90
12315;DHT22;23886;46.614;14.276;2022-09-06T10:09:58;24.30;99.90
12315;DHT22;23886;46.614;14.276;2022-09-06T10:12:31;24.00;99.90
12315;DHT22;23886;46.614;14.276;2022-09-06T10:14:59;24.00;99.90
12315;DHT22;23886;46.614;14.276;2022-09-06T10:17:31;24.20;99.90
12315;DHT22;23886;46.614;14.276;2022-09-06T10:20:02;24.20;99.90
12315;DHT22;23886;46.614;14.276;2022-09-06T10:22:37;24.20;99.90
12315;DHT22;23886;46.614;14.276;2022-09-06T10:25:36;24.60;99.90
12315;DHT22;23886;46.614;14.276;2022-09-06T10:28:27;24.80;99.90
12315;DHT22;23886;46.614;14.276;2022-09-06T10:31:05;25.10;99.90
12315;DHT22;23886;46.614;14.276;2022-09-06T10:33:41;25.70;99.90
12315;DHT22;23886;46.614;14.276;2022-09-06T10:36:19;26.20;99.90
12315;DHT22;23886;46.614;14.276;2022-09-06T10:38:52;26.10;99.90
12315;DHT22;23886;46.614;14.276;2022-09-06T10:41:40;25.90;99.90
12315;DHT22;23886;46.614;14.276;2022-09-06T10:44:20;25.80;99.90
12315;DHT22;23886;46.614;14.276;2022-09-06T10:46:52;25.10;99.90
12315;DHT22;23886;46.614;14.276;2022-09-06T10:49:21;25.10;99.90
12315;DHT22;23886;46.614;14.276;2022-09-06T10:51:53;25.20;99.90
12315;DHT22;23886;46.614;14.276;2022-09-06T10:54:23;25.70;99.90
12315;DHT22;23886;46.614;14.276;2022-09-06T10:56:56;25.60;99.90
12315;DHT22;23886;46.614;14.276;2022-09-06T10:59:27;25.80;99.90
12315;DHT22;23886;46.614;14.276;2022-09-06T11:02:03;26.00;99.90
12315;DHT22;23886;46.614;14.276;2022-09-06T11:04:35;26.00;99.90
12315;DHT22;23886;46.614;14.276;2022-09-06T11:07:10;25.80;99.90
12315;DHT22;23886;46.614;14.276;2022-09-06T11:09:44;25.70;99.90
12315;DHT22;23886;46.614;14.276;2022-09-06T11:12:15;25.70;99.90
12315;DHT22;23886;46.614;14.276;2022-09-06T11:14:45;25.80;99.90
12315;DHT22;23886;46.614;14.276;2022-09-06T11:17:17;25.90;99.90
12315;DHT22;23886;46.614;14.276;2022-09-06T11:19:49;26.10;99.90
12315;DHT22;23886;46.614;14.276;2022-09-06T11:22:46;26.00;99.90
12315;DHT22;23886;46.614;14.276;2022-09-06T11:28:28;26.10;99.90
12315;DHT22;23886;46.614;14.276;2022-09-06T11:30:57;26.20;99.90
12315;DHT22;23886;46.614;14.276;2022-09-06T11:33:27;26.00;99.90
12315;DHT22;23886;46.614;14.276;2022-09-06T11:36:18;26.20;99.60
12315;DHT22;23886;46.614;14.276;2022-09-06T11:38:54;26.10;99.90
12315;DHT22;23886;46.614;14.276;2022-09-06T11:41:27;26.10;99.20
12315;DHT22;23886;46.614;14.276;2022-09-06T11:43:56;26.00;98.40
12315;DHT22;23886;46.614;14.276;2022-09-06T11:46:57;26.10;99.30
12315;DHT22;23886;46.614;14.276;2022-09-06T11:49:33;26.30;99.10
12315;DHT22;23886;46.614;14.276;2022-09-06T11:54:46;27.00;98.60
12315;DHT22;23886;46.614;14.276;2022-09-06T11:57:16;27.20;97.70
12315;DHT22;23886;46.614;14.276;2022-09-06T11:59:53;27.30;98.40
12315;DHT22;23886;46.614;14.276;2022-09-06T12:02:31;27.40;98.50
12315;DHT22;23886;46.614;14.276;2022-09-06T12:05:17;28.30;97.70
12315;DHT22;23886;46.614;14.276;2022-09-06T12:08:22;28.80;96.20
12315;DHT22;23886;46.614;14.276;2022-09-06T12:14:01;29.40;93.10
12315;DHT22;23886;46.614;14.276;2022-09-06T12:19:56;29.90;93.80
12315;DHT22;23886;46.614;14.276;2022-09-06T12:23:00;30.30;92.10
12315;DHT22;23886;46.614;14.276;2022-09-06T12:25:57;30.80;92.70
12315;DHT22;23886;46.614;14.276;2022-09-06T12:28:38;30.40;91.90
12315;DHT22;23886;46.614;14.276;2022-09-06T12:31:28;30.10;92.70
12315;DHT22;23886;46.614;14.276;2022-09-06T12:33:57;30.60;91.80
12315;DHT22;23886;46.614;14.276;2022-09-06T12:36:27;30.40;92.80
12315;DHT22;23886;46.614;14.276;2022-09-06T12:38:57;31.10;92.80
12315;DHT22;23886;46.614;14.276;2022-09-06T12:41:27;31.20;91.40
12315;DHT22;23886;46.614;14.276;2022-09-06T12:43:55;30.70;92.70
12315;DHT22;23886;46.614;14.276;2022-09-06T12:46:26;30.90;92.20
12315;DHT22;23886;46.614;14.276;2022-09-06T12:49:03;30.80;92.60
12315;DHT22;23886;46.614;14.276;2022-09-06T12:51:31;30.90;91.50
12315;DHT22;23886;46.614;14.276;2022-09-06T12:53:59;31.30;92.90
12315;DHT22;23886;46.614;14.276;2022-09-06T12:56:28;32.00;90.40
12315;DHT22;23886;46.614;14.276;2022-09-06T12:59:14;31.80;90.20
12315;DHT22;23886;46.614;14.276;2022-09-06T13:01:48;30.90;90.10
12315;DHT22;23886;46.614;14.276;2022-09-06T13:04:23;31.00;90.90
12315;DHT22;23886;46.614;14.276;2022-09-06T13:06:51;30.60;92.00
12315;DHT22;23886;46.614;14.276;2022-09-06T13:09:20;31.30;91.80
12315;DHT22;23886;46.614;14.276;2022-09-06T13:11:49;31.70;91.20
12315;DHT22;23886;46.614;14.276;2022-09-06T13:14:19;31.30;91.70
12315;DHT22;23886;46.614;14.276;2022-09-06T13:16:50;31.40;91.00
12315;DHT22;23886;46.614;14.276;2022-09-06T13:19:31;30.80;91.70
12315;DHT22;23886;46.614;14.276;2022-09-06T13:21:59;30.70;92.20
12315;DHT22;23886;46.614;14.276;2022-09-06T13:24:41;30.30;92.40
12315;DHT22;23886;46.614;14.276;2022-09-06T13:27:26;29.90;92.60
12315;DHT22;23886;46.614;14.276;2022-09-06T13:30:00;29.50;93.40
12315;DHT22;23886;46.614;14.276;2022-09-06T13:32:29;29.50;93.20
12315;DHT22;23886;46.614;14.276;2022-09-06T13:34:57;29.80;93.30
12315;DHT22;23886;46.614;14.276;2022-09-06T13:37:27;30.00;92.70
12315;DHT22;23886;46.614;14.276;2022-09-06T13:39:54;30.40;92.10
12315;DHT22;23886;46.614;14.276;2022-09-06T13:42:26;31.60;91.20
12315;DHT22;23886;46.614;14.276;2022-09-06T13:44:54;31.70;91.40
12315;DHT22;23886;46.614;14.276;2022-09-06T13:47:21;32.10;90.90
12315;DHT22;23886;46.614;14.276;2022-09-06T13:49:51;32.00;90.00
12315;DHT22;23886;46.614;14.276;2022-09-06T13:52:20;32.90;89.70
12315;DHT22;23886;46.614;14.276;2022-09-06T13:54:47;33.00;90.10
12315;DHT22;23886;46.614;14.276;2022-09-06T13:57:14;33.10;87.30
12315;DHT22;23886;46.614;14.276;2022-09-06T13:59:41;33.30;88.80
12315;DHT22;23886;46.614;14.276;2022-09-06T14:02:10;33.10;86.30
12315;DHT22;23886;46.614;14.276;2022-09-06T14:04:40;32.00;87.80
12315;DHT22;23886;46.614;14.276;2022-09-06T14:07:09;30.80;92.50
12315;DHT22;23886;46.614;14.276;2022-09-06T14:09:36;30.60;92.90
12315;DHT22;23886;46.614;14.276;2022-09-06T14:12:04;30.50;91.90
12315;DHT22;23886;46.614;14.276;2022-09-06T14:14:31;30.90;91.70
12315;DHT22;23886;46.614;14.276;2022-09-06T14:16:58;30.60;90.90
12315;DHT22;23886;46.614;14.276;2022-09-06T14:19:26;31.30;91.20
12315;DHT22;23886;46.614;14.276;2022-09-06T14:21:53;32.70;88.90
12315;DHT22;23886;46.614;14.276;2022-09-06T14:24:22;34.50;85.10
12315;DHT22;23886;46.614;14.276;2022-09-06T14:26:49;34.90;82.80
12315;DHT22;23886;46.614;14.276;2022-09-06T14:29:16;35.00;82.80
12315;DHT22;23886;46.614;14.276;2022-09-06T14:31:43;33.40;82.90
12315;DHT22;23886;46.614;14.276;2022-09-06T14:34:12;33.90;85.80
12315;DHT22;23886;46.614;14.276;2022-09-06T14:36:39;33.90;82.20
12315;DHT22;23886;46.614;14.276;2022-09-06T14:39:06;32.50;84.80
12315;DHT22;23886;46.614;14.276;2022-09-06T14:41:35;32.60;89.40
12315;DHT22;23886;46.614;14.276;2022-09-06T14:44:02;31.60;90.00
12315;DHT22;23886;46.614;14.276;2022-09-06T14:46:29;31.20;91.10
12315;DHT22;23886;46.614;14.276;2022-09-06T14:48:57;31.10;91.30
12315;DHT22;23886;46.614;14.276;2022-09-06T14:51:25;31.00;91.00
12315;DHT22;23886;46.614;14.276;2022-09-06T14:53:54;30.50;91.00
12315;DHT22;23886;46.614;14.276;2022-09-06T14:56:21;30.10;92.10
12315;DHT22;23886;46.614;14.276;2022-09-06T14:58:50;29.40;93.40
12315;DHT22;23886;46.614;14.276;2022-09-06T15:01:22;29.10;93.80
12315;DHT22;23886;46.614;14.276;2022-09-06T15:03:52;29.00;93.60
12315;DHT22;23886;46.614;14.276;2022-09-06T15:06:21;28.90;93.10
12315;DHT22;23886;46.614;14.276;2022-09-06T15:08:48;28.70;94.20
12315;DHT22;23886;46.614;14.276;2022-09-06T15:11:26;28.40;94.70
12315;DHT22;23886;46.614;14.276;2022-09-06T15:13:56;28.40;95.20
12315;DHT22;23886;46.614;14.276;2022-09-06T15:16:23;28.50;94.40
12315;DHT22;23886;46.614;14.276;2022-09-06T15:18:50;28.60;93.90
12315;DHT22;23886;46.614;14.276;2022-09-06T15:21:17;28.80;94.70
12315;DHT22;23886;46.614;14.276;2022-09-06T15:23:45;28.70;95.90
12315;DHT22;23886;46.614;14.276;2022-09-06T15:26:14;28.40;95.80
12315;DHT22;23886;46.614;14.276;2022-09-06T15:28:42;28.40;96.80
12315;DHT22;23886;46.614;14.276;2022-09-06T15:31:12;28.50;97.00
12315;DHT22;23886;46.614;14.276;2022-09-06T15:33:40;28.40;97.50
12315;DHT22;23886;46.614;14.276;2022-09-06T15:36:08;28.50;97.30
12315;DHT22;23886;46.614;14.276;2022-09-06T15:38:38;28.70;96.40
12315;DHT22;23886;46.614;14.276;2022-09-06T15:41:07;28.60;96.80
12315;DHT22;23886;46.614;14.276;2022-09-06T15:43:35;29.40;94.40
12315;DHT22;23886;46.614;14.276;2022-09-06T15:46:05;30.10;93.20
12315;DHT22;23886;46.614;14.276;2022-09-06T15:48:39;29.90;93.50
12315;DHT22;23886;46.614;14.276;2022-09-06T15:51:07;29.60;93.90
12315;DHT22;23886;46.614;14.276;2022-09-06T15:53:35;29.20;96.40